createdAt,value
2022-12-22T00:02:57.065Z,2.30
2022-12-22T00:08:18.655Z,2.30
2022-12-22T00:13:39.687Z,2.40
2022-12-22T00:19:00.827Z,2.30
2022-12-22T00:24:23.387Z,2.30
2022-12-22T00:29:46.022Z,2.30
2022-12-22T00:35:07.804Z,2.30
2022-12-22T00:40:37.051Z,2.30
2022-12-22T00:45:58.459Z,2.40
2022-12-22T00:51:19.824Z,2.40
2022-12-22T00:56:41.068Z,2.40
2022-12-22T01:02:02.633Z,2.30
2022-12-22T01:07:24.363Z,2.30
2022-12-22T01:12:46.961Z,2.30
2022-12-22T01:18:08.255Z,2.40
2022-12-22T01:23:30.049Z,2.50
2022-12-22T01:28:50.992Z,2.40
2022-12-22T01:34:12.194Z,2.40
2022-12-22T01:39:33.372Z,2.40
2022-12-22T01:44:54.248Z,2.40
2022-12-22T01:50:15.561Z,2.40
2022-12-22T01:55:41.531Z,2.40
2022-12-22T02:01:04.415Z,2.40
2022-12-22T02:06:32.811Z,2.40
2022-12-22T02:12:20.835Z,2.40
2022-12-22T02:17:58.692Z,2.40
2022-12-22T02:23:33.845Z,2.40
2022-12-22T02:28:55.302Z,2.30
2022-12-22T02:34:16.358Z,2.30
2022-12-22T02:40:03.579Z,2.30
2022-12-22T02:45:56.660Z,2.20
2022-12-22T02:51:35.927Z,2.20
2022-12-22T02:56:58.502Z,2.20
2022-12-22T03:02:20.114Z,2.30
2022-12-22T03:07:41.366Z,2.30
2022-12-22T03:13:02.820Z,2.40
2022-12-22T03:18:26.779Z,2.40
2022-12-22T03:23:48.733Z,2.40
2022-12-22T03:28:51.329Z,2.50
2022-12-22T03:33:53.882Z,2.50
2022-12-22T03:38:56.538Z,2.60
2022-12-22T03:44:17.610Z,2.60
2022-12-22T03:49:22.619Z,2.70
2022-12-22T03:54:26.714Z,2.70
2022-12-22T03:59:29.347Z,2.70
2022-12-22T04:04:32.022Z,2.70
2022-12-22T04:09:34.648Z,2.70
2022-12-22T04:14:37.299Z,2.70
2022-12-22T04:19:39.836Z,2.70
2022-12-22T04:24:42.374Z,2.70
2022-12-22T04:29:44.958Z,2.70
2022-12-22T04:34:47.503Z,2.70
2022-12-22T04:39:50.435Z,2.70
2022-12-22T04:44:53.106Z,2.60
2022-12-22T04:49:56.800Z,2.70
2022-12-22T04:54:59.492Z,2.70
2022-12-22T05:00:02.424Z,2.70
2022-12-22T05:05:05.475Z,2.70
2022-12-22T05:10:09.130Z,2.70
2022-12-22T05:15:12.053Z,2.70
2022-12-22T05:20:14.774Z,2.60
2022-12-22T05:25:18.072Z,2.70
2022-12-22T05:30:21.058Z,2.70
2022-12-22T05:35:23.899Z,2.60
2022-12-22T05:40:26.909Z,2.60
2022-12-22T05:45:29.921Z,2.50
2022-12-22T05:50:32.943Z,2.50
2022-12-22T05:55:39.711Z,2.40
2022-12-22T06:00:42.421Z,2.30
2022-12-22T06:05:45.113Z,2.20
2022-12-22T06:10:47.763Z,2.10
2022-12-22T06:15:50.450Z,1.90
2022-12-22T06:20:53.738Z,1.90
2022-12-22T06:25:58.354Z,1.90
2022-12-22T06:31:01.066Z,1.90
2022-12-22T06:36:08.297Z,1.90
2022-12-22T06:41:10.950Z,2.00
2022-12-22T06:46:13.789Z,2.10
2022-12-22T06:51:16.612Z,2.20
2022-12-22T06:56:19.175Z,2.10
2022-12-22T07:01:21.936Z,2.20
2022-12-22T07:06:24.721Z,2.20
2022-12-22T07:11:27.462Z,2.30
2022-12-22T07:16:30.188Z,2.40
2022-12-22T07:21:33.208Z,2.40
2022-12-22T07:26:35.971Z,2.40
2022-12-22T07:31:38.775Z,2.60
2022-12-22T07:36:41.667Z,2.70
2022-12-22T07:42:02.781Z,2.60
2022-12-22T07:47:05.637Z,2.80
2022-12-22T07:52:08.850Z,3.00
2022-12-22T07:57:11.522Z,3.20
2022-12-22T08:02:14.279Z,3.40
2022-12-22T08:07:16.995Z,3.30
2022-12-22T08:12:19.735Z,3.40
2022-12-22T08:17:22.398Z,3.40
2022-12-22T08:22:25.264Z,3.80
2022-12-22T08:27:40.166Z,3.90
2022-12-22T08:32:43.707Z,4.20
2022-12-22T08:37:47.608Z,4.70
2022-12-22T08:42:53.697Z,5.80
2022-12-22T08:47:56.386Z,6.10
2022-12-22T08:53:04.310Z,6.10
2022-12-22T08:58:07.045Z,6.30
2022-12-22T09:03:09.800Z,6.10
2022-12-22T09:08:12.558Z,6.30
2022-12-22T09:13:15.281Z,6.40
2022-12-22T09:18:17.927Z,6.10
2022-12-22T09:23:20.722Z,6.30
2022-12-22T09:28:23.412Z,6.20
2022-12-22T09:33:26.886Z,6.60
2022-12-22T09:38:30.243Z,6.70
2022-12-22T09:43:32.965Z,7.30
2022-12-22T09:48:37.532Z,7.90
2022-12-22T09:53:41.065Z,8.70
2022-12-22T09:58:44.716Z,9.40
2022-12-22T10:04:00.093Z,10.70
2022-12-22T10:09:43.982Z,10.50
2022-12-22T10:14:49.201Z,9.10
2022-12-22T10:19:54.702Z,8.70
2022-12-22T10:24:58.546Z,9.30
2022-12-22T10:30:22.542Z,9.70
2022-12-22T10:35:25.658Z,9.10
2022-12-22T10:40:30.708Z,10.20
2022-12-22T10:45:33.623Z,10.60
2022-12-22T10:50:48.938Z,11.20
2022-12-22T10:56:06.547Z,14.10
2022-12-22T11:01:11.988Z,17.00
2022-12-22T11:06:14.717Z,17.20
2022-12-22T11:11:38.164Z,18.90
2022-12-22T11:16:57.361Z,20.10
2022-12-22T11:22:15.295Z,20.10
2022-12-22T11:27:30.294Z,19.80
2022-12-22T11:32:47.665Z,20.70
2022-12-22T11:37:58.718Z,19.90
2022-12-22T11:43:38.174Z,19.20
2022-12-22T11:48:49.605Z,19.80
2022-12-22T11:54:20.521Z,19.50
2022-12-22T11:59:51.481Z,19.10
2022-12-22T12:05:45.418Z,15.80
2022-12-22T12:11:24.567Z,14.30
2022-12-22T12:16:44.236Z,14.20
2022-12-22T12:21:52.309Z,16.80
2022-12-22T12:27:19.787Z,17.60
2022-12-22T12:32:35.890Z,16.00
2022-12-22T12:37:41.810Z,13.50
2022-12-22T12:42:47.224Z,12.00
2022-12-22T12:47:50.120Z,11.30
2022-12-22T12:52:52.839Z,10.80
2022-12-22T12:57:56.482Z,10.90
2022-12-22T13:03:01.348Z,11.80
2022-12-22T13:08:15.755Z,11.50
2022-12-22T13:13:27.231Z,11.20
2022-12-22T13:18:30.212Z,10.70
2022-12-22T13:24:22.375Z,10.10
2022-12-22T13:29:27.626Z,9.60
2022-12-22T13:34:46.085Z,9.30
2022-12-22T13:40:20.762Z,8.90
2022-12-22T13:45:35.550Z,8.60
2022-12-22T13:50:43.694Z,8.90
2022-12-22T13:55:48.634Z,8.70
2022-12-22T14:01:15.482Z,8.60
2022-12-22T14:06:40.636Z,8.20
2022-12-22T14:11:51.596Z,7.90
2022-12-22T14:16:58.966Z,7.60
2022-12-22T14:22:05.931Z,7.50
2022-12-22T14:27:24.145Z,7.30
2022-12-22T14:32:42.308Z,7.60
2022-12-22T14:37:45.047Z,7.30
2022-12-22T14:42:47.736Z,7.30
2022-12-22T14:47:51.170Z,7.40
2022-12-22T14:53:00.214Z,7.70
2022-12-22T14:58:33.132Z,8.20
2022-12-22T15:03:38.436Z,8.20
2022-12-22T15:08:43.768Z,8.40
2022-12-22T15:13:48.558Z,8.50
2022-12-22T15:18:52.985Z,8.30
2022-12-22T15:23:55.853Z,8.30
2022-12-22T15:28:58.961Z,8.30
2022-12-22T15:34:04.768Z,8.20
2022-12-22T15:39:15.012Z,8.30
2022-12-22T15:44:18.102Z,8.40
2022-12-22T15:49:24.858Z,8.60
2022-12-22T15:54:30.020Z,8.70
2022-12-22T15:59:33.055Z,8.80
2022-12-22T16:04:36.026Z,8.80
2022-12-22T16:09:44.462Z,8.70
2022-12-22T16:14:51.139Z,9.00
2022-12-22T16:19:54.123Z,8.80
2022-12-22T16:24:57.091Z,8.70
2022-12-22T16:30:00.061Z,8.70
2022-12-22T16:35:12.056Z,8.50
2022-12-22T16:40:15.541Z,8.60
2022-12-22T16:45:29.042Z,8.50
2022-12-22T16:50:34.818Z,8.70
2022-12-22T16:55:37.809Z,9.10
2022-12-22T17:00:44.047Z,8.90
2022-12-22T17:05:55.847Z,8.60
2022-12-22T17:11:06.241Z,8.60
2022-12-22T17:16:19.929Z,8.60
2022-12-22T17:21:23.026Z,8.40
2022-12-22T17:26:26.467Z,8.40
2022-12-22T17:31:29.371Z,8.10
2022-12-22T17:36:37.864Z,7.90
2022-12-22T17:41:41.111Z,7.80
2022-12-22T17:46:44.007Z,7.90
2022-12-22T17:51:47.332Z,7.60
2022-12-22T17:56:50.231Z,7.70
2022-12-22T18:01:53.134Z,7.60
2022-12-22T18:06:56.318Z,7.90
2022-12-22T18:11:58.965Z,7.70
2022-12-22T18:17:01.766Z,7.70
2022-12-22T18:22:04.703Z,7.70
2022-12-22T18:27:12.583Z,7.90
2022-12-22T18:32:25.219Z,8.00
2022-12-22T18:37:30.051Z,7.70
2022-12-22T18:42:34.821Z,7.90
2022-12-22T18:47:37.744Z,8.00
2022-12-22T18:52:40.706Z,7.90
2022-12-22T18:57:47.472Z,7.90
2022-12-22T19:02:53.045Z,8.10
2022-12-22T19:07:56.133Z,8.00
2022-12-22T19:12:58.837Z,8.20
2022-12-22T19:18:01.741Z,8.20
2022-12-22T19:23:04.450Z,8.20
2022-12-22T19:28:15.995Z,8.50
2022-12-22T19:33:35.964Z,8.40
2022-12-22T19:38:38.900Z,8.50
2022-12-22T19:43:41.876Z,8.60
2022-12-22T19:48:47.902Z,8.40
2022-12-22T19:53:50.823Z,8.30
2022-12-22T19:58:55.110Z,8.40
2022-12-22T20:03:57.987Z,8.20
2022-12-22T20:09:03.587Z,8.00
2022-12-22T20:14:06.484Z,8.00
2022-12-22T20:19:16.778Z,7.90
2022-12-22T20:24:22.731Z,8.00
2022-12-22T20:29:25.605Z,7.50
2022-12-22T20:34:28.352Z,8.10
2022-12-22T20:39:31.223Z,7.90
2022-12-22T20:44:34.072Z,8.10
2022-12-22T20:49:37.098Z,8.10
2022-12-22T20:54:40.290Z,8.10
2022-12-22T20:59:44.687Z,7.90
2022-12-22T21:04:47.555Z,7.90
2022-12-22T21:09:50.462Z,8.00
2022-12-22T21:14:53.293Z,8.10
2022-12-22T21:19:56.044Z,7.70
2022-12-22T21:24:58.871Z,7.50
2022-12-22T21:30:01.748Z,7.40
2022-12-22T21:35:08.308Z,7.40
2022-12-22T21:40:18.832Z,7.60
2022-12-22T21:45:26.043Z,7.60
2022-12-22T21:50:32.870Z,7.80
2022-12-22T21:55:38.321Z,7.70
2022-12-22T22:00:45.501Z,7.60
2022-12-22T22:05:48.283Z,7.40
2022-12-22T22:10:51.509Z,7.40
2022-12-22T22:15:54.322Z,7.20
2022-12-22T22:20:56.979Z,7.10
2022-12-22T22:26:00.222Z,7.30
2022-12-22T22:31:08.808Z,7.40
2022-12-22T22:36:11.713Z,7.50
2022-12-22T22:41:14.318Z,7.60
2022-12-22T22:46:17.017Z,7.50
2022-12-22T22:51:20.136Z,7.50
2022-12-22T22:56:22.989Z,7.20
2022-12-22T23:01:25.810Z,7.40
2022-12-22T23:06:28.495Z,7.30
2022-12-22T23:11:31.136Z,7.40
2022-12-22T23:16:38.163Z,7.40
2022-12-22T23:21:42.087Z,7.30
2022-12-22T23:26:44.773Z,7.60
2022-12-22T23:31:47.498Z,7.30
2022-12-22T23:36:50.124Z,7.30
2022-12-22T23:41:52.710Z,7.40
2022-12-22T23:46:55.380Z,7.10
2022-12-22T23:51:57.987Z,7.00
2022-12-22T23:57:00.598Z,6.90
